createdAt,value
2022-12-18T00:00:23.647Z,5.29
2022-12-18T00:01:26.939Z,4.45
2022-12-18T00:02:29.742Z,7.68
2022-12-18T00:03:32.489Z,4.85
2022-12-18T00:04:35.150Z,3.65
2022-12-18T00:05:37.820Z,3.91
2022-12-18T00:06:49.714Z,6.52
2022-12-18T00:07:52.276Z,2.93
2022-12-18T00:08:54.943Z,4.12
2022-12-18T00:09:57.612Z,4.20
2022-12-18T00:11:00.703Z,3.02
2022-12-18T00:13:09.962Z,3.28
2022-12-18T00:14:11.568Z,4.31
2022-12-18T00:15:14.235Z,3.96
2022-12-18T00:16:16.927Z,3.44
2022-12-18T00:17:19.795Z,4.22
2022-12-18T00:18:22.356Z,4.06
2022-12-18T00:19:25.022Z,5.22
2022-12-18T00:20:27.585Z,6.57
2022-12-18T00:21:30.364Z,3.92
2022-12-18T00:22:33.237Z,3.86
2022-12-18T00:23:36.651Z,4.45
2022-12-18T00:24:39.805Z,4.42
2022-12-18T00:25:42.678Z,3.39
2022-12-18T00:26:45.555Z,3.32
2022-12-18T00:27:48.632Z,3.33
2022-12-18T00:28:51.405Z,5.49
2022-12-18T00:29:54.382Z,5.44
2022-12-18T00:30:57.152Z,4.74
2022-12-18T00:32:00.233Z,4.08
2022-12-18T00:33:03.029Z,4.95
2022-12-18T00:34:05.775Z,5.86
2022-12-18T00:35:08.658Z,5.73
2022-12-18T00:36:11.530Z,5.12
2022-12-18T00:37:18.367Z,4.15
2022-12-18T00:38:18.812Z,6.71
2022-12-18T00:39:21.685Z,5.62
2022-12-18T00:40:24.456Z,4.82
2022-12-18T00:41:27.241Z,6.92
2022-12-18T00:42:30.104Z,5.97
2022-12-18T00:43:33.188Z,6.59
2022-12-18T00:44:36.169Z,5.52
2022-12-18T00:45:39.080Z,4.85
2022-12-18T00:46:41.913Z,7.36
2022-12-18T00:47:44.790Z,4.99
2022-12-18T00:48:47.767Z,6.48
2022-12-18T00:49:50.537Z,8.88
2022-12-18T00:50:53.418Z,7.18
2022-12-18T00:51:56.595Z,7.32
2022-12-18T00:52:59.363Z,5.63
2022-12-18T00:54:02.545Z,6.32
2022-12-18T00:55:06.650Z,4.86
2022-12-18T00:56:09.749Z,5.27
2022-12-18T00:57:12.505Z,5.21
2022-12-18T00:58:15.378Z,5.76
2022-12-18T00:59:18.373Z,4.85
2022-12-18T01:00:21.226Z,5.53
2022-12-18T01:01:24.202Z,6.60
2022-12-18T01:02:27.110Z,5.65
2022-12-18T01:03:30.670Z,6.26
2022-12-18T01:04:33.747Z,6.72
2022-12-18T01:05:36.628Z,5.20
2022-12-18T01:06:39.393Z,7.00
2022-12-18T01:07:42.986Z,4.64
2022-12-18T01:08:45.864Z,6.74
2022-12-18T01:09:48.941Z,6.30
2022-12-18T01:10:52.032Z,5.97
2022-12-18T01:11:55.306Z,5.80
2022-12-18T01:12:57.872Z,6.94
2022-12-18T01:14:00.645Z,5.08
2022-12-18T01:15:03.724Z,6.33
2022-12-18T01:16:06.314Z,10.19
2022-12-18T01:17:08.958Z,11.43
2022-12-18T01:18:11.630Z,8.96
2022-12-18T01:19:14.511Z,6.54
2022-12-18T01:20:17.176Z,6.88
2022-12-18T01:21:19.844Z,8.45
2022-12-18T01:22:22.478Z,7.96
2022-12-18T01:23:25.399Z,7.72
2022-12-18T01:24:28.267Z,7.65
2022-12-18T01:25:31.546Z,8.31
2022-12-18T01:26:34.420Z,9.15
2022-12-18T01:27:37.297Z,12.87
2022-12-18T01:28:40.989Z,9.17
2022-12-18T01:29:43.970Z,7.86
2022-12-18T01:30:47.359Z,7.85
2022-12-18T01:31:50.300Z,9.55
2022-12-18T01:32:53.106Z,8.13
2022-12-18T01:33:55.978Z,5.47
2022-12-18T01:34:58.847Z,7.10
2022-12-18T01:36:01.829Z,6.07
2022-12-18T01:37:04.704Z,7.64
2022-12-18T01:38:07.483Z,5.81
2022-12-18T01:39:10.247Z,7.51
2022-12-18T01:40:12.918Z,6.56
2022-12-18T01:41:16.104Z,6.99
2022-12-18T01:42:18.669Z,7.47
2022-12-18T01:43:21.547Z,9.58
2022-12-18T01:44:24.421Z,7.52
2022-12-18T01:45:27.261Z,9.75
2022-12-18T01:46:30.164Z,10.05
2022-12-18T01:47:33.966Z,9.58
2022-12-18T01:48:36.738Z,11.07
2022-12-18T01:49:39.511Z,8.66
2022-12-18T01:50:42.281Z,10.32
2022-12-18T01:51:45.463Z,12.37
2022-12-18T01:52:48.333Z,13.15
2022-12-18T01:53:51.218Z,11.36
2022-12-18T01:54:54.097Z,11.63
2022-12-18T01:55:57.264Z,9.11
2022-12-18T01:57:00.151Z,9.45
2022-12-18T01:58:02.916Z,11.14
2022-12-18T01:59:05.991Z,9.82
2022-12-18T02:00:08.903Z,10.72
2022-12-18T02:01:11.713Z,10.30
2022-12-18T02:02:14.861Z,7.74
2022-12-18T02:03:17.757Z,9.06
2022-12-18T02:04:20.592Z,8.48
2022-12-18T02:05:23.344Z,10.21
2022-12-18T02:06:26.214Z,10.05
2022-12-18T02:07:29.401Z,10.09
2022-12-18T02:08:32.273Z,11.74
2022-12-18T02:09:35.150Z,11.35
2022-12-18T02:10:37.933Z,10.43
2022-12-18T02:11:40.694Z,11.13
2022-12-18T02:12:43.994Z,13.24
2022-12-18T02:13:46.755Z,13.92
2022-12-18T02:14:49.450Z,11.57
2022-12-18T02:15:51.984Z,12.23
2022-12-18T02:16:54.715Z,10.65
2022-12-18T02:17:57.547Z,9.16
2022-12-18T02:19:00.113Z,9.02
2022-12-18T02:20:02.766Z,7.93
2022-12-18T02:21:05.438Z,7.73
2022-12-18T02:22:08.003Z,13.32
2022-12-18T02:23:11.080Z,11.38
2022-12-18T02:24:14.059Z,8.72
2022-12-18T02:25:17.458Z,10.04
2022-12-18T02:26:20.346Z,12.05
2022-12-18T02:27:23.095Z,9.28
2022-12-18T02:28:26.386Z,9.65
2022-12-18T02:29:29.155Z,10.82
2022-12-18T02:30:31.947Z,11.73
2022-12-18T02:31:34.804Z,9.76
2022-12-18T02:32:37.575Z,10.92
2022-12-18T02:33:41.376Z,11.67
2022-12-18T02:34:44.449Z,9.42
2022-12-18T02:35:47.228Z,10.02
2022-12-18T02:36:49.998Z,11.94
2022-12-18T02:37:52.771Z,11.81
2022-12-18T02:38:55.946Z,12.32
2022-12-18T02:39:58.839Z,12.05
2022-12-18T02:41:01.596Z,12.48
2022-12-18T02:42:04.571Z,11.45
2022-12-18T02:43:07.343Z,10.09
2022-12-18T02:44:10.226Z,10.25
2022-12-18T02:45:13.100Z,7.08
2022-12-18T02:46:16.039Z,10.09
2022-12-18T02:47:18.952Z,11.99
2022-12-18T02:48:21.814Z,10.17
2022-12-18T02:49:24.791Z,11.85
2022-12-18T02:50:27.793Z,11.56
2022-12-18T02:51:30.546Z,10.52
2022-12-18T02:52:33.215Z,10.82
2022-12-18T02:53:36.514Z,10.29
2022-12-18T02:54:39.987Z,12.14
2022-12-18T02:55:42.767Z,13.37
2022-12-18T02:56:45.540Z,12.12
2022-12-18T02:57:48.413Z,11.53
2022-12-18T02:58:51.183Z,16.05
2022-12-18T02:59:54.673Z,10.72
2022-12-18T03:00:57.448Z,11.34
2022-12-18T03:02:00.443Z,17.44
2022-12-18T03:03:03.244Z,12.69
2022-12-18T03:04:06.178Z,9.36
2022-12-18T03:05:08.945Z,14.55
2022-12-18T03:06:11.629Z,10.95
2022-12-18T03:07:13.887Z,15.61
2022-12-18T03:08:16.435Z,14.04
2022-12-18T03:09:19.010Z,9.69
2022-12-18T03:10:21.771Z,10.95
2022-12-18T03:11:24.446Z,14.76
2022-12-18T03:12:27.120Z,14.84
2022-12-18T03:13:29.781Z,13.23
2022-12-18T03:14:32.354Z,12.43
2022-12-18T03:15:35.232Z,14.12
2022-12-18T03:16:37.928Z,10.68
2022-12-18T03:17:40.572Z,9.64
2022-12-18T03:18:43.754Z,12.56
2022-12-18T03:19:46.431Z,14.91
2022-12-18T03:20:48.986Z,13.78
2022-12-18T03:21:51.759Z,13.58
2022-12-18T03:22:54.440Z,12.31
2022-12-18T03:23:57.103Z,10.60
2022-12-18T03:24:59.771Z,14.45
2022-12-18T03:26:07.265Z,11.93
2022-12-18T03:27:06.649Z,11.29
2022-12-18T03:28:09.218Z,12.16
2022-12-18T03:29:11.891Z,13.56
2022-12-18T03:30:14.455Z,12.57
2022-12-18T03:31:17.294Z,16.02
2022-12-18T03:32:20.214Z,12.05
2022-12-18T03:33:23.190Z,12.22
2022-12-18T03:34:26.054Z,11.36
2022-12-18T03:35:28.822Z,10.37
2022-12-18T03:36:31.692Z,11.06
2022-12-18T03:37:34.493Z,12.32
2022-12-18T03:38:37.251Z,16.44
2022-12-18T03:39:40.127Z,18.28
2022-12-18T03:40:43.001Z,17.05
2022-12-18T03:41:46.085Z,17.43
2022-12-18T03:42:48.853Z,19.91
2022-12-18T03:43:51.716Z,17.85
2022-12-18T03:44:55.330Z,17.70
2022-12-18T03:45:58.108Z,18.19
2022-12-18T03:47:00.952Z,14.41
2022-12-18T03:48:03.832Z,18.25
2022-12-18T03:49:06.611Z,16.33
2022-12-18T03:50:12.670Z,15.21
2022-12-18T03:51:13.993Z,15.99
2022-12-18T03:52:17.379Z,16.52
2022-12-18T03:53:20.253Z,15.21
2022-12-18T03:54:22.921Z,16.01
2022-12-18T03:55:25.595Z,12.10
2022-12-18T03:56:28.467Z,16.20
2022-12-18T03:57:31.350Z,13.80
2022-12-18T03:58:34.112Z,14.69
2022-12-18T03:59:36.698Z,15.52
2022-12-18T04:00:39.349Z,16.18
2022-12-18T04:01:42.347Z,19.67
2022-12-18T04:02:45.386Z,14.21
2022-12-18T04:03:48.139Z,14.88
2022-12-18T04:04:50.751Z,17.16
2022-12-18T04:05:53.431Z,17.08
2022-12-18T04:06:56.099Z,17.09
2022-12-18T04:07:58.656Z,17.07
2022-12-18T04:09:01.433Z,16.78
2022-12-18T04:10:04.329Z,14.42
2022-12-18T04:11:07.174Z,15.74
2022-12-18T04:12:10.058Z,14.06
2022-12-18T04:13:13.033Z,16.98
2022-12-18T04:14:17.897Z,13.35
2022-12-18T04:15:20.716Z,12.49
2022-12-18T04:16:23.500Z,13.33
2022-12-18T04:17:26.374Z,13.12
2022-12-18T04:18:29.556Z,10.89
2022-12-18T04:19:32.424Z,8.38
2022-12-18T04:20:35.401Z,9.18
2022-12-18T04:21:38.574Z,10.52
2022-12-18T04:22:41.562Z,9.92
2022-12-18T04:23:44.738Z,9.91
2022-12-18T04:24:47.815Z,12.42
2022-12-18T04:25:50.916Z,11.75
2022-12-18T04:26:54.084Z,10.53
2022-12-18T04:27:56.753Z,11.58
2022-12-18T04:28:59.747Z,14.62
2022-12-18T04:30:02.714Z,12.57
2022-12-18T04:31:05.602Z,10.84
2022-12-18T04:32:08.584Z,9.45
2022-12-18T04:33:11.242Z,11.68
2022-12-18T04:34:14.316Z,10.36
2022-12-18T04:35:17.086Z,11.58
2022-12-18T04:36:19.953Z,7.85
2022-12-18T04:37:23.056Z,8.12
2022-12-18T04:38:25.819Z,9.24
2022-12-18T04:39:28.686Z,8.89
2022-12-18T04:40:31.555Z,8.82
2022-12-18T04:41:34.431Z,8.98
2022-12-18T04:42:37.702Z,11.98
2022-12-18T04:43:41.340Z,10.95
2022-12-18T04:44:44.604Z,9.93
2022-12-18T04:45:47.368Z,9.07
2022-12-18T04:46:50.760Z,7.69
2022-12-18T04:47:53.624Z,6.28
2022-12-18T04:48:56.611Z,8.42
2022-12-18T04:49:59.781Z,9.75
2022-12-18T04:51:02.662Z,10.01
2022-12-18T04:52:05.339Z,7.91
2022-12-18T04:53:08.210Z,10.90
2022-12-18T04:54:11.594Z,9.88
2022-12-18T04:55:14.671Z,9.77
2022-12-18T04:56:17.644Z,10.40
2022-12-18T04:57:20.641Z,10.42
2022-12-18T04:58:23.503Z,6.10
2022-12-18T04:59:26.377Z,8.53
2022-12-18T05:00:29.045Z,8.82
2022-12-18T05:01:34.733Z,7.76
2022-12-18T05:02:36.399Z,7.39
2022-12-18T05:03:39.607Z,8.73
2022-12-18T05:04:43.094Z,7.58
2022-12-18T05:05:46.173Z,7.76
2022-12-18T05:06:49.456Z,9.83
2022-12-18T05:07:52.433Z,6.92
2022-12-18T05:08:55.216Z,7.61
2022-12-18T05:09:57.886Z,11.82
2022-12-18T05:11:00.552Z,7.61
2022-12-18T05:12:03.435Z,7.15
2022-12-18T05:13:06.346Z,8.52
2022-12-18T05:14:09.073Z,8.77
2022-12-18T05:15:12.052Z,8.74
2022-12-18T05:16:15.388Z,8.12
2022-12-18T05:17:18.531Z,11.72
2022-12-18T05:18:21.392Z,7.14
2022-12-18T05:19:24.570Z,7.41
2022-12-18T05:20:27.769Z,7.10
2022-12-18T05:21:32.161Z,8.01
2022-12-18T05:22:35.031Z,6.00
2022-12-18T05:23:38.339Z,7.62
2022-12-18T05:24:41.620Z,7.32
2022-12-18T05:25:44.596Z,7.12
2022-12-18T05:26:47.774Z,8.89
2022-12-18T05:27:50.651Z,8.46
2022-12-18T05:28:53.431Z,10.70
2022-12-18T05:29:56.359Z,10.78
2022-12-18T05:30:59.236Z,8.49
2022-12-18T05:32:02.453Z,11.61
2022-12-18T05:33:05.439Z,11.55
2022-12-18T05:34:08.715Z,9.30
2022-12-18T05:35:11.783Z,12.65
2022-12-18T05:36:14.874Z,12.35
2022-12-18T05:37:17.751Z,7.02
2022-12-18T05:38:20.815Z,6.78
2022-12-18T05:39:23.705Z,6.21
2022-12-18T05:40:26.481Z,5.13
2022-12-18T05:41:30.791Z,6.53
2022-12-18T05:42:33.656Z,9.35
2022-12-18T05:43:36.868Z,10.93
2022-12-18T05:44:39.930Z,10.89
2022-12-18T05:45:43.086Z,7.65
2022-12-18T05:46:46.295Z,7.87
2022-12-18T05:47:49.465Z,9.20
2022-12-18T05:48:52.734Z,7.72
2022-12-18T05:49:55.925Z,11.26
2022-12-18T05:50:58.805Z,7.38
2022-12-18T05:52:02.126Z,8.32
2022-12-18T05:53:05.674Z,6.32
2022-12-18T05:54:08.456Z,7.27
2022-12-18T05:55:11.321Z,8.84
2022-12-18T05:56:14.703Z,8.93
2022-12-18T05:57:17.692Z,7.07
2022-12-18T05:58:20.777Z,9.64
2022-12-18T05:59:24.397Z,8.11
2022-12-18T06:00:27.249Z,8.37
2022-12-18T06:01:30.038Z,7.82
2022-12-18T06:02:34.212Z,7.74
2022-12-18T06:03:37.470Z,8.62
2022-12-18T06:04:40.281Z,6.57
2022-12-18T06:05:43.342Z,7.59
2022-12-18T06:06:46.334Z,7.97
2022-12-18T06:07:49.603Z,9.08
2022-12-18T06:08:52.600Z,9.09
2022-12-18T06:09:55.468Z,10.40
2022-12-18T06:10:58.038Z,9.21
2022-12-18T06:12:00.713Z,10.98
2022-12-18T06:13:03.274Z,12.12
2022-12-18T06:14:06.048Z,11.28
2022-12-18T06:15:08.727Z,11.52
2022-12-18T06:16:11.347Z,9.19
2022-12-18T06:17:13.947Z,11.77
2022-12-18T06:18:16.735Z,12.88
2022-12-18T06:19:19.697Z,12.52
2022-12-18T06:20:22.576Z,11.00
2022-12-18T06:21:25.659Z,11.41
2022-12-18T06:22:28.430Z,9.01
2022-12-18T06:23:31.195Z,11.52
2022-12-18T06:24:34.680Z,11.18
2022-12-18T06:25:37.454Z,11.11
2022-12-18T06:26:40.128Z,9.81
2022-12-18T06:27:42.907Z,13.15
2022-12-18T06:28:46.083Z,10.15
2022-12-18T06:29:49.373Z,11.03
2022-12-18T06:30:52.748Z,10.72
2022-12-18T06:31:56.521Z,7.66
2022-12-18T06:32:59.622Z,7.34
2022-12-18T06:34:02.805Z,6.93
2022-12-18T06:35:06.075Z,8.34
2022-12-18T06:36:08.762Z,6.62
2022-12-18T06:37:12.032Z,9.72
2022-12-18T06:38:14.637Z,10.51
2022-12-18T06:39:17.190Z,12.42
2022-12-18T06:40:19.877Z,8.98
2022-12-18T06:41:23.023Z,6.55
2022-12-18T06:42:26.001Z,10.69
2022-12-18T06:43:28.870Z,10.18
2022-12-18T06:44:31.960Z,9.36
2022-12-18T06:45:34.949Z,11.40
2022-12-18T06:46:38.211Z,9.45
2022-12-18T06:47:41.003Z,8.06
2022-12-18T06:48:43.961Z,6.76
2022-12-18T06:49:47.038Z,6.45
2022-12-18T06:50:50.121Z,8.46
2022-12-18T06:51:52.917Z,9.23
2022-12-18T06:52:55.782Z,9.85
2022-12-18T06:53:59.055Z,8.68
2022-12-18T06:55:02.439Z,8.21
2022-12-18T06:56:09.905Z,8.98
2022-12-18T06:57:10.250Z,8.54
2022-12-18T06:58:16.079Z,8.26
2022-12-18T06:59:18.882Z,7.21
2022-12-18T07:00:21.828Z,8.45
2022-12-18T07:01:25.171Z,8.09
2022-12-18T07:02:27.898Z,9.08
2022-12-18T07:03:30.862Z,7.32
2022-12-18T07:04:33.735Z,8.01
2022-12-18T07:05:36.527Z,8.23
2022-12-18T07:06:39.414Z,11.57
2022-12-18T07:07:42.566Z,6.53
2022-12-18T07:08:45.473Z,8.38
2022-12-18T07:09:48.622Z,11.02
2022-12-18T07:10:55.914Z,9.54
2022-12-18T07:11:56.240Z,10.29
2022-12-18T07:12:59.521Z,6.85
2022-12-18T07:14:02.580Z,8.33
2022-12-18T07:15:06.172Z,9.04
2022-12-18T07:16:15.977Z,6.85
2022-12-18T07:17:14.790Z,8.93
2022-12-18T07:18:17.972Z,7.56
2022-12-18T07:19:21.155Z,7.01
2022-12-18T07:20:24.332Z,7.78
2022-12-18T07:21:27.129Z,8.58
2022-12-18T07:22:30.094Z,9.88
2022-12-18T07:23:33.125Z,8.51
2022-12-18T07:24:35.990Z,9.85
2022-12-18T07:25:39.521Z,6.77
2022-12-18T07:26:42.704Z,9.24
2022-12-18T07:27:46.304Z,10.07
2022-12-18T07:28:49.083Z,10.27
2022-12-18T07:29:51.966Z,8.04
2022-12-18T07:30:55.231Z,9.14
2022-12-18T07:31:59.293Z,7.59
2022-12-18T07:33:02.625Z,7.56
2022-12-18T07:34:05.717Z,8.89
2022-12-18T07:35:08.482Z,8.97
2022-12-18T07:36:11.369Z,6.96
2022-12-18T07:37:14.234Z,7.07
2022-12-18T07:38:17.928Z,7.87
2022-12-18T07:39:21.008Z,8.95
2022-12-18T07:40:23.787Z,8.12
2022-12-18T07:41:26.764Z,10.07
2022-12-18T07:42:29.931Z,7.43
2022-12-18T07:43:33.306Z,11.02
2022-12-18T07:44:36.302Z,8.44
2022-12-18T07:45:39.098Z,8.68
2022-12-18T07:46:42.035Z,10.35
2022-12-18T07:47:45.420Z,10.47
2022-12-18T07:48:49.792Z,11.16
2022-12-18T07:49:53.324Z,10.15
2022-12-18T07:50:56.324Z,13.48
2022-12-18T07:51:59.192Z,11.36
2022-12-18T07:53:01.867Z,10.31
2022-12-18T07:54:04.751Z,11.67
2022-12-18T07:55:07.585Z,13.69
2022-12-18T07:56:28.239Z,14.79
2022-12-18T07:57:34.116Z,14.44
2022-12-18T07:58:19.311Z,12.96
2022-12-18T07:59:22.385Z,12.19
2022-12-18T08:00:25.267Z,11.99
2022-12-18T08:01:28.536Z,13.20
2022-12-18T08:02:31.590Z,12.92
2022-12-18T08:03:34.484Z,14.65
2022-12-18T08:04:37.348Z,12.76
2022-12-18T08:05:40.050Z,13.55
2022-12-18T08:06:47.522Z,12.44
2022-12-18T08:07:47.134Z,11.62
2022-12-18T08:08:49.801Z,11.09
2022-12-18T08:09:53.368Z,9.84
2022-12-18T08:10:56.450Z,11.05
2022-12-18T08:11:59.435Z,9.39
2022-12-18T08:13:05.066Z,8.63
2022-12-18T08:14:06.724Z,14.36
2022-12-18T08:15:09.991Z,9.77
2022-12-18T08:16:13.030Z,9.61
2022-12-18T08:17:15.865Z,10.57
2022-12-18T08:18:18.747Z,10.22
2022-12-18T08:19:21.515Z,11.86
2022-12-18T08:20:24.701Z,13.18
2022-12-18T08:21:27.503Z,14.23
2022-12-18T08:22:30.234Z,12.85
2022-12-18T08:23:33.888Z,15.30
2022-12-18T08:24:37.526Z,16.17
2022-12-18T08:25:40.397Z,15.85
2022-12-18T08:26:51.793Z,16.32
2022-12-18T08:27:47.870Z,17.54
2022-12-18T08:28:50.733Z,18.42
2022-12-18T08:29:53.637Z,11.78
2022-12-18T08:30:56.844Z,13.43
2022-12-18T08:31:59.639Z,13.77
2022-12-18T08:33:02.759Z,16.54
2022-12-18T08:34:05.727Z,12.98
2022-12-18T08:35:09.832Z,11.91
2022-12-18T08:36:14.213Z,12.57
2022-12-18T08:37:17.033Z,10.19
2022-12-18T08:38:19.805Z,10.90
2022-12-18T08:39:23.379Z,11.64
2022-12-18T08:40:26.716Z,10.03
2022-12-18T08:41:29.948Z,9.12
2022-12-18T08:42:33.754Z,9.95
2022-12-18T08:43:36.958Z,9.31
2022-12-18T08:44:39.926Z,8.15
2022-12-18T08:45:42.937Z,14.32
2022-12-18T08:46:45.984Z,10.29
2022-12-18T08:47:49.345Z,10.82
2022-12-18T08:48:52.803Z,8.31
2022-12-18T08:49:56.114Z,11.99
2022-12-18T08:50:59.223Z,11.42
2022-12-18T08:52:02.213Z,12.65
2022-12-18T08:53:05.495Z,13.99
2022-12-18T08:54:08.850Z,11.13
2022-12-18T08:55:12.541Z,13.55
2022-12-18T08:56:15.927Z,12.20
2022-12-18T08:57:19.833Z,12.11
2022-12-18T08:58:23.208Z,12.22
2022-12-18T08:59:26.446Z,8.36
2022-12-18T09:00:29.573Z,9.81
2022-12-18T09:01:32.940Z,12.72
2022-12-18T09:02:36.596Z,12.91
2022-12-18T09:03:39.906Z,9.09
2022-12-18T09:04:42.856Z,11.61
2022-12-18T09:05:45.896Z,10.21
2022-12-18T09:06:49.080Z,8.25
2022-12-18T09:07:52.256Z,8.91
2022-12-18T09:08:55.142Z,11.50
2022-12-18T09:09:58.146Z,6.32
2022-12-18T09:11:01.289Z,6.37
2022-12-18T09:12:04.303Z,6.57
2022-12-18T09:13:07.077Z,5.58
2022-12-18T09:14:10.231Z,6.90
2022-12-18T09:15:13.128Z,6.25
2022-12-18T09:16:16.276Z,5.58
2022-12-18T09:17:19.393Z,4.70
2022-12-18T09:18:22.470Z,5.28
2022-12-18T09:19:25.513Z,6.46
2022-12-18T09:20:28.422Z,7.22
2022-12-18T09:21:31.473Z,5.93
2022-12-18T09:22:36.081Z,11.01
2022-12-18T09:23:39.616Z,7.03
2022-12-18T09:24:42.483Z,8.16
2022-12-18T09:25:45.631Z,9.18
2022-12-18T09:26:48.914Z,8.35
2022-12-18T09:27:52.609Z,7.55
2022-12-18T09:28:55.515Z,8.48
2022-12-18T09:29:58.674Z,9.58
2022-12-18T09:31:01.952Z,9.10
2022-12-18T09:32:05.051Z,9.45
2022-12-18T09:33:08.036Z,9.80
2022-12-18T09:34:11.095Z,9.86
2022-12-18T09:35:13.786Z,14.18
2022-12-18T09:36:16.937Z,10.71
2022-12-18T09:37:19.634Z,10.35
2022-12-18T09:38:22.505Z,12.55
2022-12-18T09:39:25.589Z,10.16
2022-12-18T09:40:28.546Z,12.51
2022-12-18T09:41:31.723Z,11.82
2022-12-18T09:42:34.693Z,10.35
2022-12-18T09:43:37.594Z,9.40
2022-12-18T09:44:45.114Z,9.08
2022-12-18T09:45:45.435Z,14.35
2022-12-18T09:46:48.256Z,14.52
2022-12-18T09:47:51.231Z,12.48
2022-12-18T09:48:54.213Z,12.18
2022-12-18T09:49:57.894Z,13.28
2022-12-18T09:51:00.872Z,10.27
2022-12-18T09:52:04.050Z,11.84
2022-12-18T09:53:06.743Z,11.75
2022-12-18T09:54:10.213Z,15.95
2022-12-18T09:55:13.115Z,14.78
2022-12-18T09:56:17.293Z,13.52
2022-12-18T09:57:20.393Z,15.06
2022-12-18T09:58:23.140Z,18.08
2022-12-18T09:59:25.809Z,12.41
2022-12-18T10:00:28.790Z,12.78
2022-12-18T10:01:41.375Z,12.55
2022-12-18T10:02:36.194Z,10.25
2022-12-18T10:03:39.048Z,14.40
2022-12-18T10:04:42.128Z,16.27
2022-12-18T10:05:45.005Z,13.47
2022-12-18T10:06:47.785Z,17.10
2022-12-18T10:07:50.924Z,14.07
2022-12-18T10:08:53.935Z,12.95
2022-12-18T10:09:57.019Z,15.67
2022-12-18T10:10:59.999Z,12.60
2022-12-18T10:12:03.381Z,17.22
2022-12-18T10:13:06.774Z,14.77
2022-12-18T10:14:09.638Z,14.98
2022-12-18T10:15:12.717Z,13.08
2022-12-18T10:16:15.912Z,15.20
2022-12-18T10:17:18.880Z,18.57
2022-12-18T10:18:22.392Z,15.10
2022-12-18T10:19:25.347Z,19.07
2022-12-18T10:20:28.225Z,14.82
2022-12-18T10:21:31.605Z,12.62
2022-12-18T10:22:34.893Z,14.33
2022-12-18T10:23:37.863Z,14.89
2022-12-18T10:24:41.048Z,14.22
2022-12-18T10:25:43.818Z,14.95
2022-12-18T10:26:46.694Z,14.61
2022-12-18T10:27:49.576Z,14.61
2022-12-18T10:28:52.345Z,12.86
2022-12-18T10:29:55.319Z,14.58
2022-12-18T10:30:58.367Z,14.08
2022-12-18T10:32:01.167Z,17.58
2022-12-18T10:33:04.143Z,16.11
2022-12-18T10:34:06.920Z,16.45
2022-12-18T10:35:09.694Z,15.29
2022-12-18T10:36:12.566Z,14.83
2022-12-18T10:37:15.438Z,17.41
2022-12-18T10:38:18.218Z,15.91
2022-12-18T10:39:20.987Z,16.85
2022-12-18T10:40:23.806Z,17.54
2022-12-18T10:41:26.527Z,13.72
2022-12-18T10:42:30.734Z,16.78
2022-12-18T10:43:33.818Z,15.45
2022-12-18T10:44:37.206Z,18.34
2022-12-18T10:45:40.282Z,18.29
2022-12-18T10:46:43.225Z,17.78
2022-12-18T10:47:46.028Z,21.33
2022-12-18T10:48:48.913Z,19.04
2022-12-18T10:49:51.682Z,15.32
2022-12-18T10:51:10.841Z,15.61
2022-12-18T10:51:58.965Z,15.42
2022-12-18T10:53:01.946Z,13.99
2022-12-18T10:54:04.613Z,17.84
2022-12-18T10:55:09.028Z,17.58
2022-12-18T10:56:12.098Z,19.87
2022-12-18T10:57:15.175Z,16.24
2022-12-18T10:58:22.238Z,17.19
2022-12-18T10:59:22.873Z,14.79
2022-12-18T11:00:26.157Z,15.52
2022-12-18T11:01:29.674Z,18.53
2022-12-18T11:02:33.063Z,17.12
2022-12-18T11:03:36.162Z,24.18
2022-12-18T11:04:39.189Z,20.23
2022-12-18T11:05:42.371Z,17.21
2022-12-18T11:06:45.568Z,17.05
2022-12-18T11:07:48.838Z,22.45
2022-12-18T11:08:52.230Z,18.08
2022-12-18T11:09:55.311Z,19.66
2022-12-18T11:10:58.281Z,19.69
2022-12-18T11:12:01.567Z,20.33
2022-12-18T11:13:04.547Z,19.70
2022-12-18T11:14:08.853Z,17.86
2022-12-18T11:15:12.142Z,19.56
2022-12-18T11:16:15.391Z,21.18
2022-12-18T11:17:26.638Z,21.55
2022-12-18T11:18:22.912Z,22.99
2022-12-18T11:19:26.512Z,22.38
2022-12-18T11:20:29.581Z,21.43
2022-12-18T11:21:32.978Z,20.51
2022-12-18T11:22:35.952Z,17.81
2022-12-18T11:23:39.230Z,19.93
2022-12-18T11:24:42.414Z,21.62
2022-12-18T11:25:45.496Z,21.39
2022-12-18T11:26:48.270Z,20.25
2022-12-18T11:27:51.391Z,20.32
2022-12-18T11:28:54.124Z,21.52
2022-12-18T11:29:57.709Z,22.65
2022-12-18T11:31:00.737Z,17.68
2022-12-18T11:32:03.762Z,20.78
2022-12-18T11:33:06.848Z,18.73
2022-12-18T11:34:28.742Z,20.45
2022-12-18T11:35:14.545Z,21.73
2022-12-18T11:36:17.534Z,19.31
2022-12-18T11:37:20.500Z,16.31
2022-12-18T11:38:23.470Z,20.79
2022-12-18T11:39:26.253Z,17.44
2022-12-18T11:40:29.213Z,15.77
2022-12-18T11:41:31.874Z,13.90
2022-12-18T11:42:34.557Z,17.38
2022-12-18T11:43:37.333Z,16.87
2022-12-18T11:44:40.231Z,19.51
2022-12-18T11:45:42.979Z,17.81
2022-12-18T11:46:45.791Z,17.45
2022-12-18T11:47:49.652Z,18.10
2022-12-18T11:48:52.522Z,18.42
2022-12-18T11:49:55.614Z,17.74
2022-12-18T11:50:59.011Z,18.04
2022-12-18T11:52:02.170Z,22.51
2022-12-18T11:53:06.484Z,18.65
2022-12-18T11:54:09.559Z,16.99
2022-12-18T11:55:12.643Z,18.35
2022-12-18T11:56:16.033Z,20.63
2022-12-18T11:57:19.209Z,21.44
2022-12-18T11:58:22.594Z,17.85
2022-12-18T11:59:26.707Z,17.49
2022-12-18T12:00:29.774Z,17.98
2022-12-18T12:01:33.045Z,19.06
2022-12-18T12:02:36.162Z,15.98
2022-12-18T12:03:39.955Z,15.05
2022-12-18T12:04:43.221Z,14.86
2022-12-18T12:05:46.299Z,14.69
2022-12-18T12:06:49.293Z,15.12
2022-12-18T12:07:52.255Z,17.28
2022-12-18T12:08:55.332Z,16.09
2022-12-18T12:09:58.308Z,15.35
2022-12-18T12:11:01.180Z,18.54
2022-12-18T12:12:04.363Z,18.24
2022-12-18T12:13:07.442Z,20.76
2022-12-18T12:14:10.528Z,19.54
2022-12-18T12:15:13.601Z,20.42
2022-12-18T12:16:16.699Z,20.17
2022-12-18T12:17:19.963Z,18.55
2022-12-18T12:18:23.050Z,22.29
2022-12-18T12:19:26.157Z,19.88
2022-12-18T12:20:32.516Z,21.16
2022-12-18T12:21:33.720Z,21.79
2022-12-18T12:22:36.902Z,19.80
2022-12-18T12:23:40.887Z,18.68
2022-12-18T12:24:44.195Z,19.36
2022-12-18T12:25:47.264Z,20.48
2022-12-18T12:26:50.241Z,18.35
2022-12-18T12:27:53.220Z,20.27
2022-12-18T12:28:56.295Z,19.80
2022-12-18T12:29:59.379Z,14.95
2022-12-18T12:31:02.456Z,18.35
2022-12-18T12:32:05.713Z,17.12
2022-12-18T12:33:09.024Z,12.79
2022-12-18T12:34:12.001Z,15.41
2022-12-18T12:35:14.777Z,12.72
2022-12-18T12:36:17.755Z,14.47
2022-12-18T12:37:20.944Z,18.94
2022-12-18T12:38:24.011Z,17.71
2022-12-18T12:39:26.990Z,15.52
2022-12-18T12:41:34.171Z,16.60
2022-12-18T12:42:36.839Z,16.16
2022-12-18T12:43:43.342Z,16.35
2022-12-18T12:44:44.025Z,15.81
2022-12-18T12:45:47.070Z,16.64
2022-12-18T12:46:49.879Z,14.75
2022-12-18T12:47:52.543Z,15.18
2022-12-18T12:48:55.931Z,15.46
2022-12-18T12:49:58.708Z,14.94
2022-12-18T12:51:01.584Z,14.55
2022-12-18T12:52:04.661Z,14.01
2022-12-18T12:53:07.737Z,16.85
2022-12-18T12:54:11.021Z,14.86
2022-12-18T12:55:14.913Z,16.12
2022-12-18T12:56:17.900Z,17.30
2022-12-18T12:57:20.880Z,22.51
2022-12-18T12:58:24.060Z,17.60
2022-12-18T12:59:27.559Z,17.58
2022-12-18T13:00:30.831Z,22.09
2022-12-18T13:01:33.756Z,17.80
2022-12-18T13:02:38.196Z,18.65
2022-12-18T13:03:41.685Z,17.21
2022-12-18T13:04:44.991Z,20.67
2022-12-18T13:05:49.299Z,22.26
2022-12-18T13:06:52.074Z,25.42
2022-12-18T13:07:54.742Z,20.33
2022-12-18T13:08:59.051Z,17.58
2022-12-18T13:10:02.131Z,16.95
2022-12-18T13:11:05.007Z,20.63
2022-12-18T13:12:08.291Z,22.03
2022-12-18T13:13:11.201Z,18.12
2022-12-18T13:14:13.936Z,24.61
2022-12-18T13:15:16.910Z,21.48
2022-12-18T13:16:19.786Z,24.58
2022-12-18T13:17:22.569Z,21.84
2022-12-18T13:18:25.742Z,20.78
2022-12-18T13:19:28.413Z,23.72
2022-12-18T13:20:31.387Z,20.29
2022-12-18T13:21:34.263Z,21.78
2022-12-18T13:22:37.239Z,23.77
2022-12-18T13:23:40.780Z,27.19
2022-12-18T13:24:44.015Z,26.01
2022-12-18T13:25:47.098Z,23.92
2022-12-18T13:26:50.787Z,27.83
2022-12-18T13:27:54.274Z,26.21
2022-12-18T13:28:58.894Z,24.99
2022-12-18T13:30:01.883Z,26.45
2022-12-18T13:31:05.154Z,31.15
2022-12-18T13:32:08.144Z,26.65
2022-12-18T13:33:11.310Z,26.18
2022-12-18T13:34:26.163Z,32.26
2022-12-18T13:35:18.903Z,33.79
2022-12-18T13:36:23.112Z,29.76
2022-12-18T13:37:26.066Z,31.25
2022-12-18T13:38:29.174Z,32.78
2022-12-18T13:39:34.763Z,32.72
2022-12-18T13:40:36.654Z,33.90
2022-12-18T13:41:39.740Z,32.56
2022-12-18T13:42:42.508Z,30.45
2022-12-18T13:43:46.612Z,30.16
2022-12-18T13:44:49.383Z,31.69